Time;durP1;ratioP1;P1;durP2;ratioP2;P2;SDS_P1;SDS_P2;PMS_P1;PMS_P2;Temp;Humidity;BMP_temperature;BMP_pressure;BME280_temperature;BME280_humidity;BME280_pressure;Samples;Min_cycle;Max_cycle;Signal;HPM_P1;HPM_P2
2023/04/25 05:07:16;;;;;;;;;;;;;;;;;;4982704;28;19924;-40
2023/04/25 05:09:42;;;;;;;;;;;;;;;;;;4989778;28;20000;-40
2023/04/25 05:12:08;;;;;;;;;;;;;;;;;;4992548;28;19945;-40
2023/04/25 05:14:34;;;;;;;;;;;;;;;;;;5009311;28;19906;-41
2023/04/25 05:17:04;;;;;;;;;;;;;;;;;;5009197;28;20023;-40
2023/04/25 05:19:31;;;;;;;;;;;;;;;;;;5009416;28;19964;-40
2023/04/25 05:21:57;;;;;;;;;;;;;;;;;;5005196;28;19917;-40
2023/04/25 05:24:23;;;;;;;;;;;;;;;;;;5003504;28;19914;-40
2023/04/25 05:26:49;;;;;;;;;;;;;;;;;;4989320;28;19910;-40
2023/04/25 05:29:15;;;;;;;;;;;;;;;;;;4989438;28;19976;-40
2023/04/25 05:31:40;;;;;;;;;;;;;;;;;;4981675;28;19917;-40
2023/04/25 05:34:06;;;;;;;;;;;;;;;;;;4982745;28;19910;-40
2023/04/25 05:36:32;;;;;;;;;;;;;;;;;;4995700;28;19980;-40
2023/04/25 05:38:59;;;;;;;;;;;;;;;;;;4991530;28;19914;-40
2023/04/25 05:41:25;;;;;;;;;;;;;;;;;;4982075;28;19910;-40
2023/04/25 05:43:51;;;;;;;;;;;;;;;;;;4980190;28;20020;-40
2023/04/25 05:46:17;;;;;;;;;;;;;;;;;;4996068;28;19910;-40
2023/04/25 05:48:43;;;;;;;;;;;;;;;;;;4995989;28;19916;-40
2023/04/25 05:51:09;;;;;;;;;;;;;;;;;;4995851;28;19909;-40
2023/04/25 05:53:35;;;;;;;;;;;;;;;;;;4986002;28;19909;-40
2023/04/25 05:56:01;;;;;;;;;;;;;;;;;;4976367;28;19972;-40
2023/04/25 05:58:27;;;;;;;;;;;;;;;;;;4978712;28;19976;-40
2023/04/25 06:00:53;;;;;;;;;;;;;;;;;;4983613;28;20004;-40
2023/04/25 06:03:19;;;;;;;;;;;;;;;;;;4983489;28;19913;-40
2023/04/25 06:05:45;;;;;;;;;;;;;;;;;;4994270;28;19916;-40
2023/04/25 06:08:10;;;;;;;;;;;;;;;;;;4995381;28;19910;-40
2023/04/25 06:10:36;;;;;;;;;;;;;;;;;;4994937;28;19957;-40
2023/04/25 06:13:02;;;;;;;;;;;;;;;;;;4995592;28;19937;-40
2023/04/25 06:15:28;;;;;;;;;;;;;;;;;;4991991;28;19917;-40
2023/04/25 06:17:54;;;;;;;;;;;;;;;;;;4993805;28;19920;-40
2023/04/25 06:20:22;;;;;;;;;;;;;;;;;;4991152;28;19916;-40
2023/04/25 06:22:49;;;;;;;;;;;;;;;;;;4993879;28;19922;-40
2023/04/25 06:25:15;;;;;;;;;;;;;;;;;;4996553;28;19905;-40
2023/04/25 06:27:41;;;;;;;;;;;;;;;;;;4985599;28;20008;-40
2023/04/25 06:30:07;;;;;;;;;;;;;;;;;;4995430;28;19996;-40
2023/04/25 06:32:34;;;;;;;;;;;;;;;;;;4978860;28;19910;-40
2023/04/25 06:35:00;;;;;;;;;;;;;;;;;;4979083;28;20013;-40
2023/04/25 06:37:25;;;;;;;;;;;;;;;;;;4986373;28;19993;-40
2023/04/25 06:39:51;;;;;;;;;;;;;;;;;;4977115;28;19906;-40
2023/04/25 06:42:17;;;;;;;;;;;;;;;;;;4985357;28;19979;-40
2023/04/25 06:44:43;;;;;;;;;;;;;;;;;;4983532;28;20152;-41
2023/04/25 06:47:10;;;;;;;;;;;;;;;;;;4991110;28;19941;-40
2023/04/25 06:49:36;;;;;;;;;;;;;;;;;;4993360;28;19999;-41
2023/04/25 06:52:02;;;;;;;;;;;;;;;;;;4993028;28;19913;-41
2023/04/25 06:54:29;;;;;;;;;;;;;;;;;;4978764;28;19969;-40
2023/04/25 06:56:55;;;;;;;;;;;;;;;;;;4973782;28;19906;-40
2023/04/25 06:59:21;;;;;;;;;;;;;;;;;;4978256;28;20306;-40
2023/04/25 07:01:47;;;;;;;;;;;;;;;;;;4992731;28;19920;-40
2023/04/25 07:04:13;;;;;;;;;;;;;;;;;;4991622;28;19928;-40
2023/04/25 07:06:42;;;;;;;;;;;;;;;;;;4991625;28;19910;-40
2023/04/25 07:09:08;;;;;;;;;;;;;;;;;;4974756;28;20424;-40
2023/04/25 07:11:34;;;;;;;;;;;;;;;;;;4973514;28;20277;-40
2023/04/25 07:14:00;;;;;;;;;;;;;;;;;;4973130;28;19910;-40
2023/04/25 07:16:26;;;;;;;;;;;;;;;;;;4981108;28;20011;-40
2023/04/25 07:18:52;;;;;;;;;;;;;;;;;;4991595;28;19961;-40
2023/04/25 07:21:18;;;;;;;;;;;;;;;;;;4991555;28;19914;-40
2023/04/25 07:23:44;;;;;;;;;;;;;;;;;;4990292;28;19934;-40
2023/04/25 07:26:10;;;;;;;;;;;;;;;;;;4977611;28;19910;-40
2023/04/25 07:28:36;;;;;;;;;;;;;;;;;;4973014;28;19918;-40
2023/04/25 07:31:02;;;;;;;;;;;;;;;;;;4976771;28;19914;-41
2023/04/25 07:33:28;;;;;;;;;;;;;;;;;;4991432;28;19956;-38
2023/04/25 07:35:54;;;;;;;;;;;;;;;;;;4992491;28;20705;-41
2023/04/25 07:38:20;;;;;;;;;;;;;;;;;;4992186;28;19993;-38
2023/04/25 07:40:46;;;;;;;;;;;;;;;;;;4974983;28;20005;-38
2023/04/25 07:43:14;;;;;;;;;;;;;;;;;;4977998;28;19914;-38
2023/04/25 07:45:40;;;;;;;;;;;;;;;;;;4973130;28;19961;-38
2023/04/25 07:48:06;;;;;;;;;;;;;;;;;;4980515;28;19921;-39
2023/04/25 07:50:32;;;;;;;;;;;;;;;;;;4971805;28;19910;-38
2023/04/25 07:52:58;;;;;;;;;;;;;;;;;;4971580;28;19914;-38
2023/04/25 07:55:24;;;;;;;;;;;;;;;;;;4971485;28;19992;-39
2023/04/25 07:57:50;;;;;;;;;;;;;;;;;;4980104;28;19929;-38
2023/04/25 08:00:16;;;;;;;;;;;;;;;;;;4980972;28;20809;-38
2023/04/25 08:02:41;;;;;;;;;;;;;;;;;;4990879;28;19916;-38
2023/04/25 08:05:11;;;;;;;;;;;;;;;;;;4992204;28;20008;-39
2023/04/25 08:07:37;;;;;;;;;;;;;;;;;;4987544;28;19918;-38
2023/04/25 08:10:03;;;;;;;;;;;;;;;;;;4978508;28;20285;-38
2023/04/25 08:12:29;;;;;;;;;;;;;;;;;;4989984;28;19976;-39
2023/04/25 08:14:55;;;;;;;;;;;;;;;;;;4990657;28;19913;-39
2023/04/25 08:17:21;;;;;;;;;;;;;;;;;;4985281;28;19933;-39
2023/04/25 08:19:47;;;;;;;;;;;;;;;;;;4990770;28;19918;-38
2023/04/25 08:22:13;;;;;;;;;;;;;;;;;;4991370;28;19918;-39
2023/04/25 08:24:39;;;;;;;;;;;;;;;;;;4990119;28;19916;-39
2023/04/25 08:27:06;;;;;;;;;;;;;;;;;;4980734;28;19933;-38
2023/04/25 08:29:32;;;;;;;;;;;;;;;;;;4971234;28;19997;-39
2023/04/25 08:31:58;;;;;;;;;;;;;;;;;;4978416;28;20448;-39
2023/04/25 08:34:25;;;;;;;;;;;;;;;;;;4988567;28;19909;-38
2023/04/25 08:36:51;;;;;;;;;;;;;;;;;;4988913;28;19912;-39
2023/04/25 08:39:17;;;;;;;;;;;;;;;;;;4988895;28;19910;-41
2023/04/25 08:41:44;;;;;;;;;;;;;;;;;;4989508;28;19917;-39
2023/04/25 08:44:09;;;;;;;;;;;;;;;;;;4990325;28;19913;-39
2023/04/25 08:46:36;;;;;;;;;;;;;;;;;;4980987;28;19914;-39
2023/04/25 08:49:02;;;;;;;;;;;;;;;;;;4988769;28;19917;-38
2023/04/25 08:51:30;;;;;;;;;;;;;;;;;;4988799;28;19914;-39
2023/04/25 08:53:56;;;;;;;;;;;;;;;;;;4988377;28;20212;-39
2023/04/25 08:56:23;;;;;;;;;;;;;;;;;;4988677;28;20456;-39
2023/04/25 08:58:50;;;;;;;;;;;;;;;;;;4988099;28;19913;-39
2023/04/25 09:01:16;;;;;;;;;;;;;;;;;;4988623;28;19910;-38
2023/04/25 09:03:42;;;;;;;;;;;;;;;;;;4988632;28;19917;-41
2023/04/25 09:06:09;;;;;;;;;;;;;;;;;;4988698;28;19914;-41
2023/04/25 09:08:35;;;;;;;;;;;;;;;;;;4987859;28;20009;-42
2023/04/25 09:11:01;;;;;;;;;;;;;;;;;;4988557;28;20222;-41
2023/04/25 09:13:27;;;;;;;;;;;;;;;;;;4988119;28;20435;-38
2023/04/25 09:15:53;;;;;;;;;;;;;;;;;;4988127;28;19952;-39
2023/04/25 09:18:18;;;;;;;;;;;;;;;;;;4988138;28;19976;-39
2023/04/25 09:20:44;;;;;;;;;;;;;;;;;;4988431;28;19960;-39
2023/04/25 09:23:10;;;;;;;;;;;;;;;;;;4988310;28;19917;-39
2023/04/25 09:25:38;;;;;;;;;;;;;;;;;;4988388;28;20000;-39
2023/04/25 09:28:04;;;;;;;;;;;;;;;;;;4987560;28;19917;-39
2023/04/25 09:30:31;;;;;;;;;;;;;;;;;;4988162;28;20324;-39
2023/04/25 09:32:58;;;;;;;;;;;;;;;;;;4988277;28;19937;-39
2023/04/25 09:35:24;;;;;;;;;;;;;;;;;;4988074;28;19910;-39
2023/04/25 09:37:50;;;;;;;;;;;;;;;;;;4987947;28;19984;-39
2023/04/25 09:40:16;;;;;;;;;;;;;;;;;;4987979;28;20013;-39
2023/04/25 09:42:42;;;;;;;;;;;;;;;;;;4987844;28;20119;-39
2023/04/25 09:45:08;;;;;;;;;;;;;;;;;;4988545;28;19913;-39
2023/04/25 09:47:35;;;;;;;;;;;;;;;;;;4988145;28;20285;-39
2023/04/25 09:50:02;;;;;;;;;;;;;;;;;;4988036;28;19912;-39
2023/04/25 09:52:28;;;;;;;;;;;;;;;;;;4986864;28;20289;-39
2023/04/25 09:54:54;;;;;;;;;;;;;;;;;;4979651;28;20423;-39
2023/04/25 09:57:20;;;;;;;;;;;;;;;;;;4969000;28;19917;-39
2023/04/25 09:59:45;;;;;;;;;;;;;;;;;;4969517;28;20460;-39
2023/04/25 10:02:12;;;;;;;;;;;;;;;;;;4989746;28;19914;-39
2023/04/25 10:04:39;;;;;;;;;;;;;;;;;;4989374;28;19921;-39
2023/04/25 10:07:06;;;;;;;;;;;;;;;;;;4989043;28;19913;-39
2023/04/25 10:09:33;;;;;;;;;;;;;;;;;;4988750;28;19913;-39
2023/04/25 10:11:59;;;;;;;;;;;;;;;;;;4981014;28;19910;-39
2023/04/25 10:14:25;;;;;;;;;;;;;;;;;;4987044;28;20007;-39
2023/04/25 10:16:53;;;;;;;;;;;;;;;;;;4991438;28;19976;-39
2023/04/25 10:19:19;;;;;;;;;;;;;;;;;;4988167;28;20056;-39
2023/04/25 10:21:45;;;;;;;;;;;;;;;;;;4992059;28;20292;-39
2023/04/25 10:24:11;;;;;;;;;;;;;;;;;;4990687;28;19914;-39
2023/04/25 10:26:38;;;;;;;;;;;;;;;;;;4991272;28;19913;-39
2023/04/25 10:29:04;;;;;;;;;;;;;;;;;;4990331;28;19914;-39
2023/04/25 10:31:30;;;;;;;;;;;;;;;;;;4991348;28;19917;-39
2023/04/25 10:33:56;;;;;;;;;;;;;;;;;;4990867;28;20292;-39
2023/04/25 10:36:22;;;;;;;;;;;;;;;;;;4991223;28;20308;-39
2023/04/25 10:38:50;;;;;;;;;;;;;;;;;;4990563;28;19917;-39
2023/04/25 10:41:16;;;;;;;;;;;;;;;;;;4990527;28;20292;-39
2023/04/25 10:43:42;;;;;;;;;;;;;;;;;;4990693;28;19910;-39
2023/04/25 10:46:07;;;;;;;;;;;;;;;;;;4990342;28;19906;-39
2023/04/25 10:48:33;;;;;;;;;;;;;;;;;;4989209;28;19929;-39
2023/04/25 10:51:00;;;;;;;;;;;;;;;;;;4990704;28;20399;-39
2023/04/25 10:53:26;;;;;;;;;;;;;;;;;;4990644;28;20523;-39
2023/04/25 10:55:53;;;;;;;;;;;;;;;;;;4992113;28;20016;-39
2023/04/25 10:58:20;;;;;;;;;;;;;;;;;;4987517;28;19961;-39
2023/04/25 11:00:45;;;;;;;;;;;;;;;;;;4990450;28;19906;-40
2023/04/25 11:03:11;;;;;;;;;;;;;;;;;;4991582;28;19916;-39
2023/04/25 11:05:37;;;;;;;;;;;;;;;;;;4991549;28;19916;-39
2023/04/25 11:08:03;;;;;;;;;;;;;;;;;;4991935;28;19956;-39
2023/04/25 11:10:29;;;;;;;;;;;;;;;;;;4983225;28;20411;-39
2023/04/25 11:12:55;;;;;;;;;;;;;;;;;;4990520;28;19956;-39
2023/04/25 11:15:21;;;;;;;;;;;;;;;;;;4990885;28;19906;-39
2023/04/25 11:17:47;;;;;;;;;;;;;;;;;;4991982;28;19917;-39
2023/04/25 11:20:15;;;;;;;;;;;;;;;;;;4989966;28;19921;-39
2023/04/25 11:22:41;;;;;;;;;;;;;;;;;;4982515;28;20396;-39
2023/04/25 11:25:07;;;;;;;;;;;;;;;;;;4990796;28;19996;-39
2023/04/25 11:27:34;;;;;;;;;;;;;;;;;;4988271;28;19936;-39
2023/04/25 11:30:00;;;;;;;;;;;;;;;;;;4988993;28;20037;-39
2023/04/25 11:32:26;;;;;;;;;;;;;;;;;;4990553;28;19950;-39
2023/04/25 11:34:52;;;;;;;;;;;;;;;;;;4988956;28;19906;-39
2023/04/25 11:37:19;;;;;;;;;;;;;;;;;;4985278;28;19913;-39
2023/04/25 11:39:48;;;;;;;;;;;;;;;;;;4988371;28;19920;-39
2023/04/25 11:42:14;;;;;;;;;;;;;;;;;;4980188;28;20372;-39
2023/04/25 11:44:41;;;;;;;;;;;;;;;;;;4988687;28;19916;-39
2023/04/25 11:47:07;;;;;;;;;;;;;;;;;;4982384;28;20304;-39
2023/04/25 11:49:33;;;;;;;;;;;;;;;;;;4988300;28;19924;-39
2023/04/25 11:52:00;;;;;;;;;;;;;;;;;;4990539;28;20303;-40
2023/04/25 11:54:27;;;;;;;;;;;;;;;;;;4989025;28;19905;-40
2023/04/25 11:56:54;;;;;;;;;;;;;;;;;;4984021;28;19910;-39
2023/04/25 11:59:20;;;;;;;;;;;;;;;;;;4990198;28;19914;-39
2023/04/25 12:01:46;;;;;;;;;;;;;;;;;;4991322;28;19906;-39
2023/04/25 12:04:12;;;;;;;;;;;;;;;;;;4990718;28;19918;-39
2023/04/25 12:06:41;;;;;;;;;;;;;;;;;;4991212;28;19916;-39
2023/04/25 12:09:06;;;;;;;;;;;;;;;;;;4988556;28;19914;-39
2023/04/25 12:11:32;;;;;;;;;;;;;;;;;;4977956;28;19917;-39
2023/04/25 12:13:58;;;;;;;;;;;;;;;;;;4985971;28;19917;-39
2023/04/25 12:16:25;;;;;;;;;;;;;;;;;;4988146;28;19913;-39
2023/04/25 12:18:52;;;;;;;;;;;;;;;;;;4988110;28;19909;-39
2023/04/25 12:21:18;;;;;;;;;;;;;;;;;;4984974;28;19964;-39
2023/04/25 12:23:43;;;;;;;;;;;;;;;;;;4989668;28;19910;-39
2023/04/25 12:26:09;;;;;;;;;;;;;;;;;;4988871;28;20000;-39
2023/04/25 12:28:35;;;;;;;;;;;;;;;;;;4989409;28;19940;-39
2023/04/25 12:31:02;;;;;;;;;;;;;;;;;;4988999;28;19906;-39
2023/04/25 12:33:30;;;;;;;;;;;;;;;;;;4989273;28;19921;-39
2023/04/25 12:35:55;;;;;;;;;;;;;;;;;;4988400;28;20372;-39
2023/04/25 12:38:21;;;;;;;;;;;;;;;;;;4988865;28;19916;-39
2023/04/25 12:40:47;;;;;;;;;;;;;;;;;;4988254;28;19917;-39
2023/04/25 12:43:14;;;;;;;;;;;;;;;;;;4988645;28;19917;-39
2023/04/25 12:45:40;;;;;;;;;;;;;;;;;;4988091;28;19916;-39
2023/04/25 12:48:06;;;;;;;;;;;;;;;;;;4989088;28;19914;-39
2023/04/25 12:50:33;;;;;;;;;;;;;;;;;;4987805;28;20008;-39
2023/04/25 12:52:59;;;;;;;;;;;;;;;;;;4989299;28;19918;-39
2023/04/25 12:55:25;;;;;;;;;;;;;;;;;;4987888;28;19909;-40
2023/04/25 12:57:52;;;;;;;;;;;;;;;;;;4989084;28;19909;-39
2023/04/25 13:00:19;;;;;;;;;;;;;;;;;;4988463;28;20284;-39
2023/04/25 13:02:48;;;;;;;;;;;;;;;;;;4988780;28;19913;-39
2023/04/25 13:05:14;;;;;;;;;;;;;;;;;;4982798;28;19968;-39
2023/04/25 13:07:41;;;;;;;;;;;;;;;;;;4987405;28;19960;-39
2023/04/25 13:10:07;;;;;;;;;;;;;;;;;;4979744;28;19914;-39
2023/04/25 13:12:33;;;;;;;;;;;;;;;;;;4987294;28;19906;-39
2023/04/25 13:14:59;;;;;;;;;;;;;;;;;;4983668;28;20301;-39
2023/04/25 13:17:26;;;;;;;;;;;;;;;;;;4987304;28;19917;-39
2023/04/25 13:19:53;;;;;;;;;;;;;;;;;;4984549;28;20411;-39
2023/04/25 13:22:20;;;;;;;;;;;;;;;;;;4986708;28;19909;-39
2023/04/25 13:24:46;;;;;;;;;;;;;;;;;;4984925;28;19963;-39
2023/04/25 13:27:12;;;;;;;;;;;;;;;;;;4986318;28;20300;-39
2023/04/25 13:29:40;;;;;;;;;;;;;;;;;;4983359;28;19914;-39
2023/04/25 13:32:07;;;;;;;;;;;;;;;;;;4985465;28;19910;-40
2023/04/25 13:34:33;;;;;;;;;;;;;;;;;;4984983;28;19918;-39
2023/04/25 13:37:00;;;;;;;;;;;;;;;;;;4985246;28;19910;-39
2023/04/25 13:39:26;;;;;;;;;;;;;;;;;;4985425;28;19914;-39
2023/04/25 13:41:52;;;;;;;;;;;;;;;;;;4983976;28;19929;-39
2023/04/25 13:44:17;;;;;;;;;;;;;;;;;;4979355;28;20359;-39
2023/04/25 13:46:43;;;;;;;;;;;;;;;;;;4985678;28;19967;-39
2023/04/25 13:49:09;;;;;;;;;;;;;;;;;;4984645;28;20301;-40
2023/04/25 13:51:35;;;;;;;;;;;;;;;;;;4985355;28;19917;-39
2023/04/25 13:54:02;;;;;;;;;;;;;;;;;;4985865;28;19917;-39
2023/04/25 13:56:28;;;;;;;;;;;;;;;;;;4990175;28;19945;-39
2023/04/25 13:58:54;;;;;;;;;;;;;;;;;;4989545;28;20535;-39
2023/04/25 14:01:21;;;;;;;;;;;;;;;;;;4989199;28;20004;-39
2023/04/25 14:03:47;;;;;;;;;;;;;;;;;;4989385;28;20320;-39
2023/04/25 14:06:16;;;;;;;;;;;;;;;;;;4985505;28;19909;-39
2023/04/25 14:08:42;;;;;;;;;;;;;;;;;;4988445;28;20035;-39
2023/04/25 14:11:08;;;;;;;;;;;;;;;;;;4989176;28;20388;-39
2023/04/25 14:13:34;;;;;;;;;;;;;;;;;;4989162;28;19917;-39
2023/04/25 14:16:00;;;;;;;;;;;;;;;;;;4984926;28;19913;-39
2023/04/25 14:18:26;;;;;;;;;;;;;;;;;;4988869;28;20380;-39
2023/04/25 14:20:52;;;;;;;;;;;;;;;;;;4989343;28;20435;-39
2023/04/25 14:23:18;;;;;;;;;;;;;;;;;;4988821;28;19924;-39
2023/04/25 14:25:44;;;;;;;;;;;;;;;;;;4989227;28;19912;-39
2023/04/25 14:28:10;;;;;;;;;;;;;;;;;;4988312;28;20345;-39
2023/04/25 14:30:36;;;;;;;;;;;;;;;;;;4987066;28;20420;-39
2023/04/25 14:33:02;;;;;;;;;;;;;;;;;;4985362;28;20254;-39
2023/04/25 14:35:28;;;;;;;;;;;;;;;;;;4984771;28;19933;-39
2023/04/25 14:37:53;;;;;;;;;;;;;;;;;;4981376;28;20165;-39
2023/04/25 14:40:22;;;;;;;;;;;;;;;;;;4986265;28;20340;-39
2023/04/25 14:42:48;;;;;;;;;;;;;;;;;;4986137;28;20356;-39
2023/04/25 14:45:14;;;;;;;;;;;;;;;;;;4986884;28;19910;-39
2023/04/25 14:47:40;;;;;;;;;;;;;;;;;;4987027;28;19921;-39
2023/04/25 14:50:08;;;;;;;;;;;;;;;;;;4986104;28;20013;-39
2023/04/25 14:52:34;;;;;;;;;;;;;;;;;;4989333;28;19976;-39
2023/04/25 14:55:04;;;;;;;;;;;;;;;;;;4987331;28;19906;-39
2023/04/25 14:57:30;;;;;;;;;;;;;;;;;;4971727;28;19921;-39
2023/04/25 14:59:56;;;;;;;;;;;;;;;;;;4987336;28;19936;-40
2023/04/25 15:02:23;;;;;;;;;;;;;;;;;;4988682;28;19913;-39
2023/04/25 15:04:49;;;;;;;;;;;;;;;;;;4986610;28;19945;-39
2023/04/25 15:07:15;;;;;;;;;;;;;;;;;;4978736;28;19956;-39
2023/04/25 15:09:41;;;;;;;;;;;;;;;;;;4983333;28;19918;-39
2023/04/25 15:12:07;;;;;;;;;;;;;;;;;;4986141;28;19933;-39
2023/04/25 15:14:33;;;;;;;;;;;;;;;;;;4988937;28;20396;-39
2023/04/25 15:16:59;;;;;;;;;;;;;;;;;;4985887;28;19925;-39
2023/04/25 15:19:25;;;;;;;;;;;;;;;;;;4980123;28;19917;-40
2023/04/25 15:21:52;;;;;;;;;;;;;;;;;;4988779;28;19909;-39
2023/04/25 15:24:18;;;;;;;;;;;;;;;;;;4992401;28;19917;-39
2023/04/25 15:26:45;;;;;;;;;;;;;;;;;;4989349;28;19932;-39
2023/04/25 15:29:11;;;;;;;;;;;;;;;;;;4988583;28;19957;-39
2023/04/25 15:31:38;;;;;;;;;;;;;;;;;;4990281;28;19952;-40
2023/04/25 15:34:05;;;;;;;;;;;;;;;;;;4988921;28;19910;-40
2023/04/25 15:36:32;;;;;;;;;;;;;;;;;;4987977;28;20332;-39
2023/04/25 15:38:58;;;;;;;;;;;;;;;;;;4986316;28;20388;-40
2023/04/25 15:41:27;;;;;;;;;;;;;;;;;;4978399;28;19910;-39
2023/04/25 15:43:53;;;;;;;;;;;;;;;;;;4978122;28;19957;-39
2023/04/25 15:46:20;;;;;;;;;;;;;;;;;;4987739;28;19963;-40
2023/04/25 15:48:46;;;;;;;;;;;;;;;;;;4986960;28;19960;-40
2023/04/25 15:51:12;;;;;;;;;;;;;;;;;;4987286;28;19914;-39
2023/04/25 15:53:39;;;;;;;;;;;;;;;;;;4980134;28;19918;-40
2023/04/25 15:56:05;;;;;;;;;;;;;;;;;;4988044;28;19905;-39
2023/04/25 15:58:31;;;;;;;;;;;;;;;;;;4983554;28;20296;-39
2023/04/25 16:00:58;;;;;;;;;;;;;;;;;;4986308;28;19910;-39
2023/04/25 16:03:24;;;;;;;;;;;;;;;;;;4982960;28;19932;-40
2023/04/25 16:05:50;;;;;;;;;;;;;;;;;;4986759;28;20388;-39
2023/04/25 16:08:16;;;;;;;;;;;;;;;;;;4987685;28;19917;-40
2023/04/25 16:10:41;;;;;;;;;;;;;;;;;;4986403;28;20007;-40
2023/04/25 16:13:07;;;;;;;;;;;;;;;;;;4987384;28;19913;-40
2023/04/25 16:15:33;;;;;;;;;;;;;;;;;;4986209;28;19957;-40
2023/04/25 16:17:59;;;;;;;;;;;;;;;;;;4985823;28;20407;-39
2023/04/25 16:20:26;;;;;;;;;;;;;;;;;;4985866;28;19910;-40
2023/04/25 16:22:52;;;;;;;;;;;;;;;;;;4975369;28;20409;-39
2023/04/25 16:25:17;;;;;;;;;;;;;;;;;;4985871;28;19910;-40
2023/04/25 16:27:43;;;;;;;;;;;;;;;;;;4987486;28;19909;-40
2023/04/25 16:30:09;;;;;;;;;;;;;;;;;;4984427;28;20269;-39
2023/04/25 16:32:36;;;;;;;;;;;;;;;;;;4971305;28;19910;-40
2023/04/25 16:35:02;;;;;;;;;;;;;;;;;;4987673;28;19909;-39
2023/04/25 16:37:28;;;;;;;;;;;;;;;;;;4972351;28;19997;-39
2023/04/25 16:39:54;;;;;;;;;;;;;;;;;;4968050;28;20000;-40
2023/04/25 16:42:20;;;;;;;;;;;;;;;;;;4967852;28;20461;-39
2023/04/25 16:44:46;;;;;;;;;;;;;;;;;;4967789;28;19945;-40
2023/04/25 16:47:12;;;;;;;;;;;;;;;;;;4969222;28;19992;-40
2023/04/25 16:49:38;;;;;;;;;;;;;;;;;;4987156;28;20481;-40
2023/04/25 16:52:04;;;;;;;;;;;;;;;;;;4986157;28;20029;-39
2023/04/25 16:54:31;;;;;;;;;;;;;;;;;;4985758;28;19937;-39
2023/04/25 16:56:57;;;;;;;;;;;;;;;;;;4978232;28;19914;-39
2023/04/25 16:59:24;;;;;;;;;;;;;;;;;;4978417;28;20436;-39
2023/04/25 17:01:50;;;;;;;;;;;;;;;;;;4987101;28;19906;-39
2023/04/25 17:04:17;;;;;;;;;;;;;;;;;;4973001;28;20433;-39
2023/04/25 17:06:44;;;;;;;;;;;;;;;;;;4985609;28;19913;-39
2023/04/25 17:09:10;;;;;;;;;;;;;;;;;;4985431;28;19968;-39
2023/04/25 17:11:36;;;;;;;;;;;;;;;;;;4985767;28;19909;-39
2023/04/25 17:14:02;;;;;;;;;;;;;;;;;;4985412;28;20008;-39
2023/04/25 17:16:29;;;;;;;;;;;;;;;;;;4985683;28;19913;-39
2023/04/25 17:18:57;;;;;;;;;;;;;;;;;;4972920;28;19917;-39
2023/04/25 17:21:22;;;;;;;;;;;;;;;;;;4975442;28;19917;-39
2023/04/25 17:23:48;;;;;;;;;;;;;;;;;;4976380;28;19918;-39
2023/04/25 17:26:15;;;;;;;;;;;;;;;;;;4976374;28;19944;-39
2023/04/25 17:28:47;;;;;;;;;;;;;;;;;;4983138;28;19913;-40
2023/04/25 17:31:13;;;;;;;;;;;;;;;;;;4985346;28;20266;-40
2023/04/25 17:33:39;;;;;;;;;;;;;;;;;;4976640;28;19945;-40
2023/04/25 17:36:06;;;;;;;;;;;;;;;;;;4977254;28;20457;-40
2023/04/25 17:38:34;;;;;;;;;;;;;;;;;;4981853;28;19952;-40
2023/04/25 17:41:01;;;;;;;;;;;;;;;;;;4971922;28;19910;-40
2023/04/25 17:43:27;;;;;;;;;;;;;;;;;;4966122;28;20361;-39
2023/04/25 17:45:53;;;;;;;;;;;;;;;;;;4971256;28;20208;-39
2023/04/25 17:48:23;;;;;;;;;;;;;;;;;;4984230;28;19956;-39
2023/04/25 17:50:49;;;;;;;;;;;;;;;;;;4971512;28;19917;-39
2023/04/25 17:53:16;;;;;;;;;;;;;;;;;;4969723;28;20424;-39
2023/04/25 17:55:43;;;;;;;;;;;;;;;;;;4984531;28;20214;-39
2023/04/25 17:58:10;;;;;;;;;;;;;;;;;;4980155;28;19922;-39
2023/04/25 18:00:36;;;;;;;;;;;;;;;;;;4975462;28;20285;-39
2023/04/25 18:03:02;;;;;;;;;;;;;;;;;;4973041;28;19914;-39
2023/04/25 18:05:29;;;;;;;;;;;;;;;;;;4969501;28;19984;-39
2023/04/25 18:07:55;;;;;;;;;;;;;;;;;;4974406;28;19913;-39
2023/04/25 18:10:21;;;;;;;;;;;;;;;;;;4976970;28;19914;-39
2023/04/25 18:12:49;;;;;;;;;;;;;;;;;;4977569;28;19914;-39
2023/04/25 18:15:15;;;;;;;;;;;;;;;;;;4975912;28;19916;-39
2023/04/25 18:17:41;;;;;;;;;;;;;;;;;;4981660;28;20402;-39
2023/04/25 18:20:07;;;;;;;;;;;;;;;;;;4982346;28;19914;-39
2023/04/25 18:22:33;;;;;;;;;;;;;;;;;;4973077;28;19910;-39
2023/04/25 18:25:00;;;;;;;;;;;;;;;;;;4975637;28;19914;-39
2023/04/25 18:27:26;;;;;;;;;;;;;;;;;;4972916;28;19917;-39
2023/04/25 18:29:53;;;;;;;;;;;;;;;;;;4980456;28;19917;-40
2023/04/25 18:32:19;;;;;;;;;;;;;;;;;;4974220;28;19918;-39
2023/04/25 18:34:48;;;;;;;;;;;;;;;;;;4974120;28;20513;-40
2023/04/25 18:37:15;;;;;;;;;;;;;;;;;;4979222;28;19913;-39
2023/04/25 18:39:41;;;;;;;;;;;;;;;;;;4977665;28;19909;-40
2023/04/25 18:42:07;;;;;;;;;;;;;;;;;;4976523;28;19913;-40
2023/04/25 18:44:38;;;;;;;;;;;;;;;;;;4978615;28;19914;-40
2023/04/25 18:47:05;;;;;;;;;;;;;;;;;;4979259;28;19910;-40
2023/04/25 18:49:32;;;;;;;;;;;;;;;;;;4970123;28;19921;-40
2023/04/25 18:51:58;;;;;;;;;;;;;;;;;;4978472;28;19941;-39
2023/04/25 18:54:23;;;;;;;;;;;;;;;;;;4975106;28;19909;-40
2023/04/25 18:56:50;;;;;;;;;;;;;;;;;;4978041;28;20349;-39
2023/04/25 18:59:17;;;;;;;;;;;;;;;;;;4980403;28;19914;-40
2023/04/25 19:01:44;;;;;;;;;;;;;;;;;;4985674;28;19913;-39
2023/04/25 19:04:11;;;;;;;;;;;;;;;;;;4981779;28;19909;-40
2023/04/25 19:06:38;;;;;;;;;;;;;;;;;;4974807;28;19917;-40
2023/04/25 19:09:04;;;;;;;;;;;;;;;;;;4986431;28;19968;-39
2023/04/25 19:11:30;;;;;;;;;;;;;;;;;;4976365;28;19913;-39
2023/04/25 19:13:56;;;;;;;;;;;;;;;;;;4968346;28;19913;-40
2023/04/25 19:16:22;;;;;;;;;;;;;;;;;;4976154;28;20416;-39
2023/04/25 19:18:50;;;;;;;;;;;;;;;;;;4979308;28;19918;-39
2023/04/25 19:21:17;;;;;;;;;;;;;;;;;;4968456;28;20381;-39
2023/04/25 19:23:43;;;;;;;;;;;;;;;;;;4976919;28;19997;-40
2023/04/25 19:26:09;;;;;;;;;;;;;;;;;;4972379;28;20004;-39
2023/04/25 19:28:36;;;;;;;;;;;;;;;;;;4975415;28;19972;-40
2023/04/25 19:31:02;;;;;;;;;;;;;;;;;;4982082;28;19910;-39
2023/04/25 19:33:28;;;;;;;;;;;;;;;;;;4977343;28;20286;-40
2023/04/25 19:35:55;;;;;;;;;;;;;;;;;;4979912;28;19917;-40
2023/04/25 19:38:21;;;;;;;;;;;;;;;;;;4982690;28;19909;-39
2023/04/25 19:40:47;;;;;;;;;;;;;;;;;;4982983;28;19972;-39
2023/04/25 19:43:14;;;;;;;;;;;;;;;;;;4979505;28;19917;-40
2023/04/25 19:45:40;;;;;;;;;;;;;;;;;;4968104;28;20407;-39
2023/04/25 19:48:09;;;;;;;;;;;;;;;;;;4980502;28;19914;-39
2023/04/25 19:50:36;;;;;;;;;;;;;;;;;;4981559;28;19945;-39
2023/04/25 19:53:03;;;;;;;;;;;;;;;;;;4979053;28;19917;-39
2023/04/25 19:55:30;;;;;;;;;;;;;;;;;;4971151;28;19917;-39
2023/04/25 19:57:55;;;;;;;;;;;;;;;;;;4979244;28;19918;-39
2023/04/25 20:00:21;;;;;;;;;;;;;;;;;;4974394;28;20168;-39
2023/04/25 20:02:48;;;;;;;;;;;;;;;;;;4974041;28;20273;-39
2023/04/25 20:05:15;;;;;;;;;;;;;;;;;;4980742;28;19913;-39
2023/04/25 20:07:42;;;;;;;;;;;;;;;;;;4986760;28;19993;-39
2023/04/25 20:10:08;;;;;;;;;;;;;;;;;;4982105;28;19922;-39
2023/04/25 20:12:36;;;;;;;;;;;;;;;;;;4970618;28;19917;-39
2023/04/25 20:15:02;;;;;;;;;;;;;;;;;;4974716;28;19910;-39
2023/04/25 20:17:29;;;;;;;;;;;;;;;;;;4973464;28;19924;-39
2023/04/25 20:19:56;;;;;;;;;;;;;;;;;;4984520;28;19926;-39
2023/04/25 20:22:22;;;;;;;;;;;;;;;;;;4984115;28;20353;-39
2023/04/25 20:24:48;;;;;;;;;;;;;;;;;;4971823;28;20401;-39
2023/04/25 20:27:14;;;;;;;;;;;;;;;;;;4984148;28;19910;-39
2023/04/25 20:29:41;;;;;;;;;;;;;;;;;;4981407;28;19921;-39
2023/04/25 20:32:07;;;;;;;;;;;;;;;;;;4970313;28;19910;-39
2023/04/25 20:34:33;;;;;;;;;;;;;;;;;;4978559;28;19917;-39
2023/04/25 20:37:01;;;;;;;;;;;;;;;;;;4973972;28;20170;-39
2023/04/25 20:39:28;;;;;;;;;;;;;;;;;;4968010;28;19916;-39
2023/04/25 20:41:55;;;;;;;;;;;;;;;;;;4975883;28;19910;-39
2023/04/25 20:44:24;;;;;;;;;;;;;;;;;;4977813;28;19916;-39
2023/04/25 20:46:50;;;;;;;;;;;;;;;;;;4971216;28;19960;-39
2023/04/25 20:49:17;;;;;;;;;;;;;;;;;;4972914;28;20018;-40
2023/04/25 20:51:43;;;;;;;;;;;;;;;;;;4986874;28;19909;-40
2023/04/25 20:54:09;;;;;;;;;;;;;;;;;;4971689;28;19920;-40
2023/04/25 20:56:35;;;;;;;;;;;;;;;;;;4967430;28;19957;-40
2023/04/25 20:59:01;;;;;;;;;;;;;;;;;;4967104;28;20001;-40
2023/04/25 21:01:27;;;;;;;;;;;;;;;;;;4967641;28;19906;-40
2023/04/25 21:03:53;;;;;;;;;;;;;;;;;;4966300;28;20183;-40
2023/04/25 21:06:19;;;;;;;;;;;;;;;;;;4967940;28;20234;-40
2023/04/25 21:08:45;;;;;;;;;;;;;;;;;;4967345;28;19956;-40
2023/04/25 21:11:11;;;;;;;;;;;;;;;;;;4967391;28;19910;-40
2023/04/25 21:13:37;;;;;;;;;;;;;;;;;;4967240;28;19906;-39
2023/04/25 21:16:03;;;;;;;;;;;;;;;;;;4967273;28;20336;-39
2023/04/25 21:18:30;;;;;;;;;;;;;;;;;;4967442;28;19917;-40
2023/04/25 21:20:56;;;;;;;;;;;;;;;;;;4966844;28;19906;-39
2023/04/25 21:23:22;;;;;;;;;;;;;;;;;;4967565;28;19913;-39
2023/04/25 21:25:50;;;;;;;;;;;;;;;;;;4968138;28;20461;-39
2023/04/25 21:28:16;;;;;;;;;;;;;;;;;;4966818;28;19910;-40
2023/04/25 21:30:42;;;;;;;;;;;;;;;;;;4967261;28;19913;-39
2023/04/25 21:33:08;;;;;;;;;;;;;;;;;;4966951;28;20424;-39
2023/04/25 21:35:34;;;;;;;;;;;;;;;;;;4966907;28;19916;-39
2023/04/25 21:38:00;;;;;;;;;;;;;;;;;;4966747;28;19906;-40
2023/04/25 21:40:26;;;;;;;;;;;;;;;;;;4967086;28;19933;-39
2023/04/25 21:42:52;;;;;;;;;;;;;;;;;;4967571;28;19910;-39
2023/04/25 21:45:18;;;;;;;;;;;;;;;;;;4967416;28;19914;-40